Aérodrome :
LOGIN :

S'inscrire | Disclaimer

   EN    FR    IT 

 










Légende :    VFR   VFR Marginal   IFR   IFR Intensif   IFR Très Intensif
Visi : 
Plafond : 
>= 8 km
>= 3000ft
5 à 8 km
1000 à 3000 ft
1500m à 5 km
500 à 1000 ft
800 à 1500m
200 à 500 ft
< 800m
< 200 ft
Symboles :   Orages  Brouillard  Fortes neiges  Fortes précipitations  Vent > 20 kt
SIGMETs :   Divers  Orages  Givrage  Turbulence  Onde Orograph.  Cendres Volcan.






- Altitude de l'aérodrome : 220 ft
- Code IATA : CWL


EGFF - Cardiff Rhoose

DERNIER METAR :
  • 041020Z AUTO 20007KT 170V240 9999 BKN049 17/10 Q1017

METARs EXPIRÉS :
  • 040950Z AUTO 21007KT 180V250 9999 NCD 17/11 Q1017
  • 040920Z AUTO 23007KT 9999 NCD 16/10 Q1017
  • 040850Z AUTO 22007KT 9999 NCD 16/11 Q1017
  • 040820Z AUTO 22007KT 190V260 9999 SCT022 16/11 Q1017
  • 040750Z AUTO 24006KT 9999 SCT021 15/11 Q1017

TAF TAF EGFF
Valide du 04 à 06h jusqu'au 05 à 06h UTC


040453Z 0406/0506 VRB04KT 9999 SCT040
BECMG 0406/0409 24014KT
TEMPO 0419/0504 BKN014
PROB30
TEMPO 0420/0503 9000 -RA BKN009
ATIS : +44 1446 729 319



MET'MAP, la Météo Aéronautique d'un coup d'oeil ! - Copyright ORBIFLY Décembre 2007 - Disclaimer

ORBIFLY MET'MAP TEAM :

Programmation & Développement : Alexandra Zaïnal
Sur une idée originale de : Baudouin d'Aumeries
Assistance à la programmation : Marc-Olivier Méhu
Soutien technique & logistique : Manuel Goepfert

Contact : metmap@orbifly.com




SOURCES & CREDITS :

   NOAA